Time;durP1;ratioP1;P1;durP2;ratioP2;P2;SDS_P1;SDS_P2;PMS_P1;PMS_P2;Temp;Humidity;BMP_temperature;BMP_pressure;BME280_temperature;BME280_humidity;BME280_pressure;Samples;Min_cycle;Max_cycle;Signal;HPM_P1;HPM_P2
2022/12/25 00:04:06;;;;;;;14.67;9.20;;;;;;;17.57;62.62;96736.41;10432399;28;20033;-30
2022/12/25 00:09:06;;;;;;;16.27;9.43;;;;;;;17.53;62.61;96729.63;10425900;28;20497;-32
2022/12/25 00:14:07;;;;;;;15.13;8.27;;;;;;;17.54;62.86;96732.19;10441869;28;20509;-30
2022/12/25 00:19:07;;;;;;;13.73;8.07;;;;;;;17.50;62.15;96725.41;10423198;28;20288;-31
2022/12/25 00:24:08;;;;;;;15.90;8.73;;;;;;;17.49;63.00;96721.19;10435499;28;20026;-32
2022/12/25 00:29:11;;;;;;;15.23;9.25;;;;;;;17.51;62.89;96713.59;10441168;28;20060;-30
2022/12/25 00:34:12;;;;;;;16.33;8.90;;;;;;;17.51;62.98;96704.31;10430971;28;20024;-30
2022/12/25 00:39:12;;;;;;;12.40;8.00;;;;;;;17.53;62.99;96709.38;10443114;28;20492;-30
2022/12/25 00:44:13;;;;;;;12.80;9.33;;;;;;;17.50;62.76;96707.69;10440576;28;20037;-32
2022/12/25 00:49:13;;;;;;;13.77;8.43;;;;;;;17.55;62.92;96693.38;10431932;28;20378;-32
2022/12/25 00:54:14;;;;;;;14.98;9.02;;;;;;;17.59;63.37;96696.75;10435705;28;20497;-31
2022/12/25 00:59:14;;;;;;;15.57;8.07;;;;;;;17.60;62.50;96708.56;10431490;28;20599;-30
2022/12/25 01:04:14;;;;;;;17.53;8.60;;;;;;;17.53;62.05;96709.38;10436959;28;20481;-32
2022/12/25 01:14:34;;;;;;;14.45;7.90;;;;;;;17.54;62.76;96701.81;10428153;28;20090;-31
2022/12/25 01:19:34;;;;;;;13.77;8.47;;;;;;;17.53;62.41;96711.91;10432753;28;20448;-32
2022/12/25 01:24:34;;;;;;;11.43;7.40;;;;;;;17.55;61.31;96715.28;10434656;28;20511;-31
2022/12/25 01:29:35;;;;;;;11.47;7.43;;;;;;;17.52;62.85;96710.22;10441381;28;20037;-31
2022/12/25 01:34:35;;;;;;;11.70;6.68;;;;;;;17.47;62.55;96716.94;10429382;28;20033;-30
2022/12/25 01:39:36;;;;;;;12.27;7.90;;;;;;;17.52;62.66;96725.41;10441642;28;20650;-30
2022/12/25 01:44:36;;;;;;;12.70;6.53;;;;;;;17.48;62.64;96709.38;10435727;28;20059;-30
2022/12/25 01:49:39;;;;;;;12.43;7.10;;;;;;;17.51;62.79;96721.19;10449144;28;20488;-30
2022/12/25 01:55:05;;;;;;;11.52;6.97;;;;;;;17.58;63.19;96715.31;10438855;28;20071;-30
2022/12/25 02:00:06;;;;;;;11.57;7.03;;;;;;;17.58;63.23;96705.19;10440916;28;20025;-30
2022/12/25 02:05:21;;;;;;;12.30;6.93;;;;;;;17.58;61.75;96708.56;10443649;28;20029;-30
2022/12/25 02:10:21;;;;;;;13.55;6.78;;;;;;;17.53;60.90;96705.19;10440630;28;20032;-30
2022/12/25 02:15:28;;;;;;;11.35;7.28;;;;;;;17.55;61.94;96717.81;10443708;28;20035;-30
2022/12/25 02:21:00;;;;;;;11.32;7.18;;;;;;;17.49;61.25;96705.16;10436158;28;20032;-32
2022/12/25 02:26:23;;;;;;;12.35;6.70;;;;;;;17.54;62.75;96704.34;10431009;28;20650;-30
2022/12/25 02:31:36;;;;;;;10.82;6.78;;;;;;;17.52;62.73;96715.28;10442986;28;20041;-32
2022/12/25 02:36:39;;;;;;;12.00;6.53;;;;;;;17.53;61.39;96699.25;10442319;28;20123;-31
2022/12/25 02:41:43;;;;;;;9.10;6.20;;;;;;;17.52;62.69;96688.31;10440605;28;20065;-30
2022/12/25 03:08:23;;;;;;;10.57;5.93;;;;;;;17.60;62.50;96688.31;10432888;28;20036;-30
2022/12/25 03:13:32;;;;;;;9.82;5.88;;;;;;;17.54;61.96;96673.09;10445134;28;20087;-31
2022/12/25 03:18:33;;;;;;;9.98;6.28;;;;;;;17.57;60.47;96678.19;10442336;28;20025;-31
2022/12/25 03:28:56;;;;;;;13.15;5.97;;;;;;;17.52;61.71;96674.78;10439165;28;20120;-30
2022/12/25 04:38:27;;;;;;;8.60;5.38;;;;;;;17.49;62.67;96621.66;10440575;28;20036;-30
2022/12/25 04:43:28;;;;;;;7.80;4.73;;;;;;;17.49;62.75;96619.13;10439501;28;20493;-31
2022/12/25 04:48:32;;;;;;;8.35;5.30;;;;;;;17.48;62.73;96605.59;10433791;28;20029;-30
2022/12/25 04:53:32;;;;;;;7.43;4.93;;;;;;;17.50;61.85;96590.44;10429743;28;20025;-30
2022/12/25 04:58:32;;;;;;;7.23;4.63;;;;;;;17.52;61.89;96593.78;10432518;28;20036;-31
2022/12/25 05:03:34;;;;;;;7.55;4.72;;;;;;;17.52;61.75;96592.13;10438819;28;20037;-31
2022/12/25 05:08:35;;;;;;;7.85;5.15;;;;;;;17.52;61.88;96597.19;10439140;28;20125;-30
2022/12/25 05:13:36;;;;;;;8.13;5.47;;;;;;;17.55;62.72;96586.19;10441533;28;20035;-31
2022/12/25 05:18:36;;;;;;;6.85;4.35;;;;;;;17.58;62.27;96576.91;10437540;28;20448;-30
2022/12/25 05:23:37;;;;;;;7.13;4.87;;;;;;;17.56;61.59;96587.91;10446423;28;20110;-30
2022/12/25 05:28:37;;;;;;;6.43;4.78;;;;;;;17.54;61.48;96574.38;10444146;28;20040;-31
2022/12/25 05:33:38;;;;;;;7.10;4.97;;;;;;;17.53;60.69;96575.22;10442692;28;20051;-30
2022/12/25 05:38:38;;;;;;;9.15;4.90;;;;;;;17.49;62.01;96566.78;10442449;28;20468;-30
2022/12/25 05:43:39;;;;;;;5.90;4.10;;;;;;;17.51;62.17;96572.69;10445891;28;20412;-30
2022/12/25 05:48:39;;;;;;;6.00;4.43;;;;;;;17.50;62.22;96570.19;10445342;28;20036;-31
2022/12/25 05:53:41;;;;;;;6.33;3.93;;;;;;;17.49;62.31;96568.50;10448362;28;20040;-31
2022/12/25 05:58:41;;;;;;;7.63;4.47;;;;;;;17.47;62.57;96560.03;10439824;28;20030;-30
2022/12/25 06:03:42;;;;;;;5.50;4.18;;;;;;;17.49;62.32;96555.84;10447515;28;20488;-31
2022/12/25 06:08:42;;;;;;;5.53;4.07;;;;;;;17.46;62.65;96548.22;10435191;28;20033;-30
2022/12/25 06:13:43;;;;;;;7.18;4.78;;;;;;;17.54;62.24;96551.59;10448150;28;20171;-30
2022/12/25 06:18:46;;;;;;;7.20;4.03;;;;;;;17.57;62.64;96549.09;10431394;28;20025;-31
2022/12/25 06:23:46;;;;;;;7.82;4.65;;;;;;;17.57;61.97;96541.50;10444335;28;20291;-31
2022/12/25 06:28:47;;;;;;;7.73;4.77;;;;;;;17.60;61.18;96544.88;10442008;28;20527;-30
2022/12/25 06:33:47;;;;;;;8.10;4.45;;;;;;;17.59;60.58;96547.41;10443644;28;20029;-31
2022/12/25 06:38:48;;;;;;;5.03;3.58;;;;;;;17.60;60.85;96546.56;10428180;28;20049;-31
2022/12/25 06:43:54;;;;;;;5.72;3.58;;;;;;;17.61;60.54;96545.72;10439033;28;20094;-31
2022/12/25 06:48:56;;;;;;;6.00;3.75;;;;;;;17.57;61.11;96532.19;10442023;28;20033;-31
2022/12/25 06:53:57;;;;;;;6.97;3.67;;;;;;;17.61;60.58;96531.38;10425022;28;20033;-30
2022/12/25 06:59:03;;;;;;;7.05;3.60;;;;;;;17.61;60.69;96536.44;10430334;28;20477;-30
2022/12/25 07:04:11;;;;;;;6.43;4.43;;;;;;;17.60;61.35;96541.50;10427521;28;20029;-30
2022/12/25 07:09:11;;;;;;;4.00;3.08;;;;;;;17.62;60.70;96544.88;10434819;28;20303;-30
2022/12/25 07:14:20;;;;;;;7.07;4.00;;;;;;;17.62;61.42;96550.78;10433857;28;20060;-31
2022/12/25 07:19:21;;;;;;;6.30;3.78;;;;;;;17.61;60.99;96543.19;10438081;28;20029;-30
2022/12/25 07:24:22;;;;;;;6.90;4.00;;;;;;;17.63;61.91;96546.53;10435033;28;20033;-30
2022/12/25 07:29:22;;;;;;;5.60;3.85;;;;;;;17.58;62.25;96536.41;10439592;28;20032;-30
2022/12/25 07:34:23;;;;;;;7.83;3.93;;;;;;;17.62;61.81;96539.81;10429733;28;20033;-31
2022/12/25 07:39:23;;;;;;;5.87;4.17;;;;;;;17.62;62.47;96549.94;10441297;28;20029;-30
2022/12/25 07:44:23;;;;;;;5.80;3.70;;;;;;;17.55;61.32;96538.09;10442743;28;20299;-30
2022/12/25 07:49:24;;;;;;;8.07;4.17;;;;;;;17.62;61.36;96549.94;10445353;28;20082;-32
2022/12/25 07:54:24;;;;;;;9.53;3.53;;;;;;;17.58;59.40;96541.47;10435931;28;20033;-30
2022/12/25 07:59:25;;;;;;;6.33;3.30;;;;;;;17.44;58.65;96570.16;10441528;28;20067;-31
2022/12/25 08:04:25;;;;;;;5.63;3.30;;;;;;;17.51;60.70;96566.81;10442953;28;20301;-31
2022/12/25 08:09:25;;;;;;;4.37;3.17;;;;;;;17.50;60.62;96560.06;10439244;28;20029;-31
2022/12/25 08:14:26;;;;;;;7.87;3.33;;;;;;;17.54;60.18;96576.91;10428908;28;20047;-30
2022/12/25 08:19:27;;;;;;;8.95;2.90;;;;;;;17.58;60.56;96573.56;10437470;28;20029;-30
2022/12/25 08:24:28;;;;;;;6.57;2.72;;;;;;;17.59;60.33;96581.13;10430299;28;20494;-31
2022/12/25 08:29:28;;;;;;;6.70;3.23;;;;;;;17.56;61.80;96570.19;10438970;28;20033;-30
2022/12/25 08:34:28;;;;;;;9.30;3.20;;;;;;;17.58;61.92;96564.25;10432335;28;20029;-30
2022/12/25 08:39:29;;;;;;;5.17;3.33;;;;;;;17.59;61.32;96549.94;10430258;28;20061;-30
2022/12/25 08:44:29;;;;;;;4.77;3.00;;;;;;;17.53;61.63;96549.91;10436284;28;20029;-31
2022/12/25 08:49:30;;;;;;;5.37;2.53;;;;;;;17.60;60.93;96564.28;10428144;28;20386;-31
2022/12/25 08:54:32;;;;;;;5.25;2.92;;;;;;;17.61;62.56;96561.75;10438380;28;20099;-30
2022/12/25 08:59:32;;;;;;;6.25;3.67;;;;;;;17.62;61.92;96562.59;10443615;28;20507;-31
2022/12/25 09:04:33;;;;;;;2.93;2.67;;;;;;;17.63;61.07;96567.66;10437360;28;20041;-32
2022/12/25 09:09:33;;;;;;;5.65;2.72;;;;;;;17.60;61.42;96556.69;10433182;28;20116;-30
2022/12/25 09:14:34;;;;;;;6.57;2.57;;;;;;;17.60;61.26;96546.56;10431350;28;20101;-31
2022/12/25 09:19:34;;;;;;;6.17;3.00;;;;;;;17.61;61.78;96543.19;10431662;28;20033;-31
2022/12/25 09:24:34;;;;;;;4.73;2.70;;;;;;;17.61;61.92;96545.72;10437775;28;20041;-31
2022/12/25 09:29:34;;;;;;;8.30;2.80;;;;;;;17.60;62.81;96546.56;10433282;28;20045;-30
2022/12/25 09:34:35;;;;;;;8.00;2.77;;;;;;;17.61;62.81;96548.25;10432598;28;20067;-30
2022/12/25 09:39:35;;;;;;;7.60;2.77;;;;;;;17.56;63.89;96544.88;10436437;28;20032;-30
2022/12/25 09:44:42;;;;;;;6.47;1.97;;;;;;;17.60;63.87;96534.75;10446540;28;20524;-29
2022/12/25 09:49:58;;;;;;;6.25;2.45;;;;;;;17.56;63.54;96532.22;10454453;28;20033;-30
2022/12/25 09:55:05;;;;;;;;;;;;;;;17.65;62.49;96534.75;10453793;28;20040;-30
2022/12/25 10:00:35;;;;;;;5.17;1.83;;;;;;;17.64;62.54;96522.91;10440058;28;19913;-29
2022/12/25 10:05:58;;;;;;;3.75;2.10;;;;;;;17.66;62.50;96519.53;10440867;28;20075;-30
2022/12/25 10:11:12;;;;;;;4.40;2.35;;;;;;;17.65;62.29;96522.09;10437448;28;20125;-30
2022/12/25 10:16:26;;;;;;;4.25;2.28;;;;;;;17.67;62.13;96515.34;10434810;28;20087;-30
2022/12/25 10:21:27;;;;;;;4.68;2.65;;;;;;;17.64;63.04;96511.13;10439695;28;20048;-30
2022/12/25 10:26:30;;;;;;;4.97;2.53;;;;;;;17.63;63.33;96509.44;10439081;28;20049;-30
2022/12/25 10:31:35;;;;;;;6.43;2.08;;;;;;;17.64;63.25;96507.72;10445062;28;20045;-30
2022/12/25 10:36:35;;;;;;;5.80;2.00;;;;;;;17.60;63.25;96501.00;10439806;28;20029;-30
2022/12/25 10:41:56;;;;;;;7.83;2.20;;;;;;;17.65;63.75;96504.38;10435057;28;20478;-30
2022/12/25 10:46:59;;;;;;;17.45;7.50;;;;;;;17.72;63.80;96498.44;10435499;28;20036;-30
2022/12/25 10:52:01;;;;;;;25.98;11.43;;;;;;;17.74;64.28;96494.25;10445692;28;20072;-30
2022/12/25 10:57:14;;;;;;;20.25;7.18;;;;;;;17.70;62.16;96502.66;10443161;28;20067;-30
2022/12/25 11:02:20;;;;;;;13.60;6.88;;;;;;;17.66;60.02;96506.06;10445288;28;20032;-30
2022/12/25 11:07:24;;;;;;;14.45;6.90;;;;;;;17.64;59.96;96490.00;10435270;28;20033;-30
2022/12/25 11:12:34;;;;;;;14.30;7.15;;;;;;;17.62;61.99;96489.16;10438781;28;20450;-30
2022/12/25 11:17:35;;;;;;;16.55;7.40;;;;;;;17.60;63.46;96465.56;10420341;28;20060;-30
2022/12/25 11:22:35;;;;;;;13.23;6.45;;;;;;;17.60;61.89;96442.78;10429030;28;20040;-31
2022/12/25 11:27:36;;;;;;;13.38;6.15;;;;;;;17.64;63.05;96437.69;10428271;28;20033;-30
2022/12/25 11:32:47;;;;;;;13.60;6.13;;;;;;;17.66;63.10;96425.88;10432441;28;20033;-31
2022/12/25 11:37:50;;;;;;;13.32;5.72;;;;;;;17.67;59.62;96411.53;10434474;28;20678;-30
2022/12/25 11:42:57;;;;;;;13.90;7.40;;;;;;;17.68;63.33;96408.16;10438941;28;20045;-30
2022/12/25 11:48:04;;;;;;;10.68;4.93;;;;;;;17.68;58.43;96413.22;10445054;28;20044;-30
2022/12/25 11:53:13;;;;;;;14.55;6.25;;;;;;;17.70;63.30;96421.66;10436797;28;20029;-30
2022/12/25 11:58:45;;;;;;;11.05;4.95;;;;;;;17.78;62.57;96419.94;10443828;28;20481;-30
2022/12/25 12:03:45;;;;;;;11.43;4.32;;;;;;;17.63;63.49;96400.59;10439815;28;20044;-30
2022/12/25 12:08:55;;;;;;;6.80;3.50;;;;;;;17.74;57.75;96415.75;10440605;28;20509;-29
2022/12/25 12:14:15;;;;;;;9.75;4.30;;;;;;;17.73;59.15;96406.47;10445222;28;20024;-30
2022/12/25 12:19:29;;;;;;;9.82;5.13;;;;;;;17.74;58.41;96382.84;10437100;28;20780;-30
2022/12/25 12:24:37;;;;;;;12.90;5.50;;;;;;;17.71;62.96;96398.03;10427940;28;20131;-30
2022/12/25 12:29:58;;;;;;;15.18;6.13;;;;;;;17.72;62.51;96404.75;10433429;28;20029;-30
2022/12/25 12:35:04;;;;;;;10.57;5.75;;;;;;;17.69;63.38;96398.03;10428624;28;20124;-30
2022/12/25 12:40:20;;;;;;;11.88;4.72;;;;;;;17.71;64.38;96406.47;10433533;28;20029;-30
2022/12/25 12:45:30;;;;;;;14.53;4.50;;;;;;;17.72;64.24;96399.69;10442231;28;20497;-30
2022/12/25 12:50:40;;;;;;;11.98;5.47;;;;;;;17.71;64.08;96400.56;10437781;28;20386;-31
2022/12/25 12:55:41;;;;;;;11.38;4.60;;;;;;;17.70;64.15;96389.59;10427637;28;20036;-31
2022/12/25 13:00:48;;;;;;;9.87;4.60;;;;;;;17.70;65.33;96397.19;10433249;28;20036;-30
2022/12/25 13:06:09;;;;;;;9.32;4.10;;;;;;;17.72;64.63;96400.56;10438625;28;20048;-30
2022/12/25 13:11:15;;;;;;;8.82;4.45;;;;;;;17.71;64.95;96403.94;10439625;28;20460;-30
2022/12/25 13:16:23;;;;;;;13.05;4.55;;;;;;;17.75;64.95;96403.06;10436378;28;20044;-32
2022/12/25 13:21:27;;;;;;;12.73;4.60;;;;;;;17.71;63.13;96405.63;10446758;28;20033;-30
2022/12/25 13:26:28;;;;;;;6.30;4.43;;;;;;;17.71;64.22;96398.03;10446166;28;20036;-29
2022/12/25 13:31:29;;;;;;;9.13;4.20;;;;;;;17.71;63.73;96419.13;10442375;28;20670;-30
2022/12/25 13:36:36;;;;;;;9.77;4.80;;;;;;;17.70;64.54;96421.66;10437808;28;20036;-30
2022/12/25 13:47:24;;;;;;;7.93;3.63;;;;;;;17.70;64.53;96434.31;10444702;28;20032;-31
2022/12/25 13:52:36;;;;;;;6.25;3.95;;;;;;;17.71;64.87;96433.47;10439486;28;20488;-30
2022/12/25 13:57:39;;;;;;;9.05;4.05;;;;;;;17.70;63.53;96447.84;10434437;28;20567;-30
2022/12/25 14:02:40;;;;;;;15.07;4.22;;;;;;;17.73;64.77;96447.81;10441508;28;20032;-30
2022/12/25 14:07:40;;;;;;;12.55;4.03;;;;;;;17.74;63.57;96458.81;10436353;28;20041;-31
2022/12/25 14:12:41;;;;;;;11.07;4.47;;;;;;;17.74;65.62;96468.94;10438016;28;20029;-30
2022/12/25 14:17:42;;;;;;;18.95;4.55;;;;;;;17.75;65.96;96450.34;10439935;28;20033;-30
2022/12/25 14:22:49;;;;;;;10.02;4.03;;;;;;;17.77;62.55;96449.50;10439789;28;20485;-30
2022/12/25 14:27:51;;;;;;;15.25;3.75;;;;;;;17.74;64.37;96438.53;10436469;28;20038;-30
2022/12/25 14:32:53;;;;;;;14.40;4.65;;;;;;;17.73;64.00;96452.06;10426993;28;20042;-31
2022/12/25 14:37:59;;;;;;;8.13;3.13;;;;;;;17.73;59.95;96460.47;10424676;28;20037;-31
2022/12/25 14:43:01;;;;;;;7.13;3.33;;;;;;;17.73;58.06;96463.00;10429630;28;20080;-33
2022/12/25 14:48:15;;;;;;;6.00;2.78;;;;;;;17.73;57.69;96472.31;10428560;28;20090;-31
2022/12/25 14:53:18;;;;;;;10.15;3.13;;;;;;;17.70;57.28;96473.16;10435166;28;20037;-31
2022/12/25 14:58:26;;;;;;;6.15;3.35;;;;;;;17.71;60.10;96479.03;10430278;28;20124;-31
2022/12/25 15:03:29;;;;;;;6.95;3.25;;;;;;;17.54;63.66;96475.66;10440017;28;20079;-32
2022/12/25 15:08:31;;;;;;;4.45;2.45;;;;;;;17.42;60.49;96480.75;10437741;28;20067;-31
2022/12/25 15:13:32;;;;;;;4.63;2.60;;;;;;;17.51;59.47;96465.56;10432284;28;20685;-30
2022/12/25 15:18:38;;;;;;;7.43;2.65;;;;;;;17.66;60.73;96501.00;10454030;28;20449;-31
2022/12/25 15:23:38;;;;;;;15.90;4.60;;;;;;;17.75;66.49;96516.19;10437374;28;20120;-31
2022/12/25 15:28:39;;;;;;;9.67;3.10;;;;;;;17.63;63.34;96511.09;10445537;28;20020;-30
2022/12/25 15:33:40;;;;;;;7.22;2.90;;;;;;;17.67;61.82;96525.47;10440309;28;20116;-31
2022/12/25 15:38:40;;;;;;;14.37;3.83;;;;;;;17.75;63.96;96514.47;10437902;28;20033;-30
2022/12/25 15:43:40;;;;;;;10.00;3.37;;;;;;;17.79;64.50;96518.72;10444422;28;20393;-30
2022/12/25 15:48:41;;;;;;;6.97;2.43;;;;;;;17.76;59.50;96520.41;10439734;28;20029;-30
2022/12/25 15:53:41;;;;;;;8.83;2.67;;;;;;;17.72;59.49;96517.03;10416625;28;20051;-31
2022/12/25 15:58:41;;;;;;;12.00;3.33;;;;;;;17.72;62.62;96528.81;10435078;28;20280;-31
2022/12/25 16:03:43;;;;;;;11.47;3.37;;;;;;;17.71;64.74;96534.72;10437793;28;20033;-31
2022/12/25 16:08:44;;;;;;;7.28;2.65;;;;;;;17.71;64.33;96539.81;10441558;28;20071;-30
2022/12/25 16:13:44;;;;;;;11.68;4.03;;;;;;;17.71;64.19;96534.72;10442750;28;20033;-31
2022/12/25 16:18:45;;;;;;;8.17;2.70;;;;;;;17.70;64.58;96555.84;10430182;28;20523;-30
2022/12/25 16:23:45;;;;;;;8.60;2.80;;;;;;;17.68;66.61;96570.19;10435817;28;20461;-30
2022/12/25 16:28:45;;;;;;;10.48;3.30;;;;;;;17.72;67.26;96566.81;10431855;28;20311;-31
2022/12/25 16:33:46;;;;;;;5.83;2.50;;;;;;;17.74;67.17;96575.28;10436564;28;20045;-31
2022/12/25 16:38:46;;;;;;;8.07;2.80;;;;;;;17.68;65.86;96570.19;10434726;28;20288;-31
2022/12/25 16:43:47;;;;;;;6.37;2.57;;;;;;;17.70;65.68;96584.53;10439057;28;20562;-30
2022/12/25 16:48:47;;;;;;;7.68;3.05;;;;;;;17.66;65.38;96582.00;10427727;28;20037;-31
2022/12/25 16:53:48;;;;;;;7.10;3.05;;;;;;;17.69;65.43;96582.00;10426301;28;20155;-31
2022/12/25 16:58:48;;;;;;;5.43;2.63;;;;;;;17.66;65.93;96587.06;10441743;28;20041;-31
2022/12/25 17:03:49;;;;;;;7.80;2.50;;;;;;;17.64;65.65;96583.69;10438759;28;20051;-30
2022/12/25 17:08:51;;;;;;;8.18;2.40;;;;;;;17.63;65.74;96589.59;10425655;28;20033;-32
2022/12/25 17:13:53;;;;;;;5.78;2.50;;;;;;;17.63;65.83;96614.91;10440793;28;20155;-31
2022/12/25 17:19:03;;;;;;;4.68;2.20;;;;;;;17.62;66.46;96600.56;10432787;28;20488;-31
2022/12/25 17:24:04;;;;;;;9.25;2.58;;;;;;;17.61;66.52;96598.88;10436013;28;20048;-31
2022/12/25 17:29:04;;;;;;;5.13;2.30;;;;;;;17.62;66.10;96613.22;10437253;28;20041;-31
2022/12/25 17:34:07;;;;;;;6.33;2.07;;;;;;;17.65;66.97;96600.56;10437909;28;20040;-30
2022/12/25 17:39:09;;;;;;;5.38;2.25;;;;;;;17.70;67.04;96604.81;10445322;28;20094;-31
2022/12/25 17:44:09;;;;;;;6.50;2.80;;;;;;;17.71;66.58;96620.81;10442223;28;20033;-33
2022/12/25 17:49:14;;;;;;;5.20;2.40;;;;;;;17.66;65.72;96623.34;10442407;28;20037;-31
2022/12/25 17:54:14;;;;;;;4.63;2.22;;;;;;;17.63;66.10;96617.44;10432693;28;20033;-32
2022/12/25 17:59:17;;;;;;;5.13;2.00;;;;;;;17.62;65.99;96631.78;10448338;28;20040;-31
2022/12/25 18:04:17;;;;;;;2.78;1.88;;;;;;;17.62;65.29;96620.81;10443893;28;20098;-31
2022/12/25 18:09:18;;;;;;;6.10;3.00;;;;;;;17.63;66.13;96613.22;10438767;28;20102;-30
2022/12/25 18:14:19;;;;;;;3.53;2.45;;;;;;;17.61;65.64;96609.00;10441556;28;20107;-30
2022/12/25 18:19:19;;;;;;;5.07;2.47;;;;;;;17.60;65.12;96602.25;10435511;28;20071;-31
2022/12/25 18:24:19;;;;;;;4.03;2.20;;;;;;;17.60;65.30;96602.25;10435629;28;20425;-31
2022/12/25 18:29:20;;;;;;;3.37;2.00;;;;;;;17.61;64.82;96593.81;10437392;28;20040;-32
2022/12/25 18:34:20;;;;;;;3.40;2.03;;;;;;;17.58;65.30;96588.75;10443651;28;20029;-32
2022/12/25 18:39:20;;;;;;;3.97;2.40;;;;;;;17.58;65.25;96588.75;10433439;28;20031;-30
2022/12/25 18:44:21;;;;;;;3.23;2.07;;;;;;;17.64;66.80;96591.28;10441126;28;20043;-31
2022/12/25 18:49:21;;;;;;;2.97;2.37;;;;;;;17.62;67.41;96580.31;10440858;28;20037;-30
2022/12/25 18:54:22;;;;;;;3.78;1.73;;;;;;;17.67;67.26;96588.75;10426444;28;20123;-30
2022/12/25 18:59:23;;;;;;;5.27;2.00;;;;;;;17.61;66.63;96598.88;10447550;28;20031;-30
2022/12/25 19:04:23;;;;;;;3.60;2.03;;;;;;;17.59;66.14;96608.97;10444720;28;20520;-30
2022/12/25 19:09:23;;;;;;;4.10;1.93;;;;;;;17.59;65.63;96615.75;10439230;28;20055;-30
2022/12/25 19:14:27;;;;;;;4.35;2.28;;;;;;;17.57;65.64;96610.69;10440093;28;20112;-30
2022/12/25 19:19:27;;;;;;;2.22;1.58;;;;;;;17.58;64.89;96606.47;10441381;28;20074;-30
2022/12/25 19:24:27;;;;;;;2.87;1.87;;;;;;;17.57;64.57;96613.22;10434786;28;20785;-30
2022/12/25 19:29:28;;;;;;;4.50;2.03;;;;;;;17.57;64.81;96613.22;10428344;28;20059;-32
2022/12/25 19:34:28;;;;;;;4.45;1.73;;;;;;;17.57;64.67;96619.97;10433381;28;20136;-30
2022/12/25 19:39:29;;;;;;;2.83;1.83;;;;;;;17.56;64.68;96625.88;10435386;28;20032;-31
2022/12/25 19:44:30;;;;;;;4.13;1.95;;;;;;;17.56;64.45;96615.75;10437073;28;20033;-30
2022/12/25 19:49:31;;;;;;;3.37;1.57;;;;;;;17.54;63.03;96612.34;10437972;28;20049;-30
2022/12/25 19:54:31;;;;;;;4.23;2.17;;;;;;;17.61;66.89;96607.31;10429057;28;20520;-31
2022/12/25 19:59:31;;;;;;;4.93;2.43;;;;;;;17.64;67.80;96609.00;10442642;28;20033;-31
2022/12/25 20:04:32;;;;;;;4.87;2.10;;;;;;;17.64;67.08;96609.84;10437089;28;20664;-31
2022/12/25 20:09:32;;;;;;;2.90;2.53;;;;;;;17.59;66.01;96615.75;10427952;28;20576;-30
2022/12/25 20:14:32;;;;;;;2.97;1.80;;;;;;;17.54;65.73;96612.34;10427262;28;20104;-30
2022/12/25 20:19:33;;;;;;;2.80;1.97;;;;;;;17.53;64.80;96603.06;10425966;28;20798;-36
2022/12/25 20:24:33;;;;;;;2.15;1.80;;;;;;;17.54;65.12;96619.94;10433337;28;20057;-30
2022/12/25 20:29:34;;;;;;;2.43;1.63;;;;;;;17.53;64.41;96621.66;10441123;28;20090;-31
2022/12/25 20:34:34;;;;;;;2.50;2.07;;;;;;;17.53;62.63;96623.31;10434190;28;20079;-31
2022/12/25 20:39:35;;;;;;;2.67;1.70;;;;;;;17.53;63.38;96624.19;10427266;28;20090;-30
2022/12/25 20:44:36;;;;;;;3.40;1.92;;;;;;;17.49;64.11;96614.06;10436384;28;20128;-30
2022/12/25 20:49:36;;;;;;;3.13;1.60;;;;;;;17.51;62.87;96625.00;10429504;28;20025;-30
2022/12/25 20:54:36;;;;;;;2.97;1.83;;;;;;;17.52;63.07;96634.28;10426896;28;20091;-31
2022/12/25 20:59:37;;;;;;;2.33;1.40;;;;;;;17.52;62.42;96644.41;10439806;28;20031;-30
2022/12/25 21:04:37;;;;;;;3.73;1.70;;;;;;;17.56;67.52;96638.53;10424659;28;20120;-30
2022/12/25 21:09:39;;;;;;;2.73;1.90;;;;;;;17.63;67.15;96645.28;10435246;28;20036;-30
2022/12/25 21:14:39;;;;;;;3.50;1.92;;;;;;;17.63;67.35;96645.28;10432179;28;20029;-30
2022/12/25 21:19:39;;;;;;;2.27;1.70;;;;;;;17.55;66.05;96639.34;10426335;28;20502;-30
2022/12/25 21:24:40;;;;;;;5.10;1.80;;;;;;;17.51;64.79;96646.09;10431332;28;20291;-30
2022/12/25 21:29:42;;;;;;;2.58;1.90;;;;;;;17.50;64.67;96646.09;10438985;28;20032;-31
2022/12/25 21:34:42;;;;;;;3.63;2.07;;;;;;;17.49;64.00;96654.53;10424220;28;20036;-31
2022/12/25 21:39:43;;;;;;;3.30;2.37;;;;;;;17.51;63.52;96657.91;10431760;28;20408;-31
2022/12/25 21:44:44;;;;;;;4.40;1.75;;;;;;;17.50;63.35;96657.06;10435262;28;20029;-30
2022/12/25 21:55:03;;;;;;;2.45;1.55;;;;;;;17.52;62.53;96664.66;10434378;28;20400;-30
2022/12/25 22:00:04;;;;;;;4.13;2.15;;;;;;;17.51;61.17;96673.09;10442226;28;20024;-30
2022/12/25 22:05:06;;;;;;;2.10;1.52;;;;;;;17.51;61.35;96668.88;10435363;28;20039;-30
2022/12/25 22:10:07;;;;;;;2.35;1.80;;;;;;;17.52;60.45;96667.19;10450618;28;20033;-30
2022/12/25 22:15:08;;;;;;;2.60;2.10;;;;;;;17.48;66.28;96679.00;10444806;28;20039;-30
2022/12/25 22:20:15;;;;;;;3.50;1.98;;;;;;;17.57;66.63;96689.16;10443344;28;20040;-30
2022/12/25 22:25:16;;;;;;;1.92;1.52;;;;;;;17.60;66.55;96704.38;10438897;28;20029;-30
2022/12/25 22:30:19;;;;;;;4.35;2.30;;;;;;;17.55;65.79;96705.16;10449148;28;20051;-30
2022/12/25 22:35:22;;;;;;;2.90;1.90;;;;;;;17.52;64.90;96707.69;10440271;28;20041;-30
2022/12/25 22:40:22;;;;;;;3.50;2.03;;;;;;;17.50;63.88;96704.31;10442168;28;20034;-30
2022/12/25 22:45:23;;;;;;;3.50;1.90;;;;;;;17.50;62.76;96701.78;10435974;28;20095;-30
2022/12/25 22:50:23;;;;;;;2.65;1.95;;;;;;;17.49;62.95;96706.00;10448082;28;20052;-30
2022/12/25 22:55:24;;;;;;;2.80;1.83;;;;;;;17.49;62.87;96713.59;10433458;28;20037;-30
2022/12/25 23:00:24;;;;;;;2.73;1.80;;;;;;;17.50;63.72;96720.34;10441001;28;20029;-30
2022/12/25 23:05:24;;;;;;;2.60;1.73;;;;;;;17.49;60.99;96720.34;10434486;28;20048;-30
2022/12/25 23:10:25;;;;;;;2.83;2.27;;;;;;;17.49;62.34;96722.88;10442391;28;20033;-30
2022/12/25 23:15:26;;;;;;;2.13;1.58;;;;;;;17.50;61.41;96727.09;10440455;28;20390;-30
2022/12/25 23:31:05;;;;;;;1.83;1.60;;;;;;;17.57;66.17;96737.25;10443970;28;20109;-30
2022/12/25 23:36:06;;;;;;;2.05;1.40;;;;;;;17.59;66.30;96752.44;10433922;28;20393;-30
2022/12/25 23:41:06;;;;;;;4.95;2.53;;;;;;;17.51;65.78;96749.03;10432104;28;20029;-30
2022/12/25 23:46:07;;;;;;;3.93;2.43;;;;;;;17.47;64.86;96754.91;10440220;28;20382;-30
2022/12/25 23:51:07;;;;;;;2.27;1.57;;;;;;;17.48;64.87;96746.50;10433413;28;20035;-31
2022/12/25 23:56:09;;;;;;;3.00;1.98;;;;;;;17.46;63.93;96740.56;10434007;28;20039;-30
